Time;durP1;ratioP1;P1;durP2;ratioP2;P2;SDS_P1;SDS_P2;PMS_P1;PMS_P2;Temp;Humidity;BMP_temperature;BMP_pressure;BME280_temperature;BME280_humidity;BME280_pressure;Samples;Min_cycle;Max_cycle;Signal;HPM_P1;HPM_P2
2021/09/28 00:00:01;;;;;;;17.17;9.20;;;11.40;99.90;;;;;;5054516;28;20455;-65
2021/09/28 00:02:27;;;;;;;17.20;8.03;;;11.50;99.90;;;;;;5054417;28;20451;-65
2021/09/28 00:04:55;;;;;;;15.07;7.37;;;11.50;99.90;;;;;;5054646;28;20704;-65
2021/09/28 00:07:22;;;;;;;8.27;6.20;;;11.50;99.90;;;;;;5054422;28;20849;-65
2021/09/28 00:09:49;;;;;;;15.37;7.10;;;11.50;99.90;;;;;;5054438;28;20455;-65
2021/09/28 00:12:15;;;;;;;17.40;6.20;;;11.60;99.90;;;;;;5054236;28;20448;-65
2021/09/28 00:14:43;;;;;;;14.13;6.67;;;11.60;99.90;;;;;;5054526;28;20440;-64
2021/09/28 00:17:10;;;;;;;14.90;6.53;;;11.60;99.90;;;;;;5054423;28;20456;-64
2021/09/28 00:19:37;;;;;;;12.70;6.23;;;11.60;99.90;;;;;;5054200;28;20440;-65
2021/09/28 00:22:05;;;;;;;7.30;5.30;;;11.60;99.90;;;;;;5053978;28;20440;-65
2021/09/28 00:24:33;;;;;;;18.17;8.60;;;11.50;99.90;;;;;;5054316;28;20852;-65
2021/09/28 00:27:00;;;;;;;14.63;6.90;;;11.50;99.90;;;;;;5053979;28;20476;-64
2021/09/28 00:29:27;;;;;;;14.57;7.70;;;11.50;99.90;;;;;;5054003;28;20444;-65
2021/09/28 00:31:54;;;;;;;17.10;8.00;;;11.40;99.90;;;;;;5053878;28;20443;-63
2021/09/28 00:34:21;;;;;;;19.10;8.97;;;11.40;99.90;;;;;;5034175;28;20810;-65
2021/09/28 00:36:47;;;;;;;29.10;9.50;;;11.30;99.90;;;;;;5034040;28;20837;-64
2021/09/28 00:39:15;;;;;;;16.80;9.73;;;11.30;99.90;;;;;;5033797;28;20448;-65
2021/09/28 00:41:43;;;;;;;17.50;8.70;;;11.30;99.90;;;;;;5033989;28;20441;-64
2021/09/28 00:44:09;;;;;;;19.73;8.47;;;11.30;99.90;;;;;;5052831;28;20452;-63
2021/09/28 00:46:36;;;;;;;14.37;8.20;;;11.20;99.90;;;;;;5053661;28;20459;-65
2021/09/28 00:49:03;;;;;;;18.77;8.27;;;11.20;99.90;;;;;;5053465;28;20476;-63
2021/09/28 00:51:29;;;;;;;16.27;7.70;;;11.20;99.90;;;;;;5052347;28;20812;-63
2021/09/28 00:53:58;;;;;;;18.73;9.73;;;11.20;99.90;;;;;;5053546;28;20455;-64
2021/09/28 00:56:26;;;;;;;9.67;6.37;;;11.20;99.90;;;;;;5052986;28;20467;-64
2021/09/28 00:58:53;;;;;;;19.33;8.80;;;11.20;99.90;;;;;;5052883;28;20444;-62
2021/09/28 01:01:20;;;;;;;16.23;9.40;;;11.20;99.90;;;;;;5053532;28;20870;-63
2021/09/28 01:03:47;;;;;;;13.37;6.70;;;11.10;99.90;;;;;;5053472;28;20437;-60
2021/09/28 01:06:14;;;;;;;20.43;9.10;;;11.20;99.90;;;;;;5053376;28;20490;-63
2021/09/28 01:08:41;;;;;;;19.23;8.47;;;11.20;99.90;;;;;;5053051;28;20479;-60
2021/09/28 01:11:08;;;;;;;17.30;9.03;;;11.10;99.90;;;;;;5053579;28;20805;-62
2021/09/28 01:13:36;;;;;;;19.40;9.10;;;11.20;99.90;;;;;;5053295;28;20440;-62
2021/09/28 01:16:08;;;;;;;14.67;8.47;;;11.20;99.90;;;;;;5052967;28;20471;-61
2021/09/28 01:18:38;;;;;;;16.60;6.43;;;11.20;99.90;;;;;;5053030;28;20436;-63
2021/09/28 01:21:08;;;;;;;13.80;7.03;;;11.10;99.90;;;;;;5053222;28;20956;-62
2021/09/28 01:23:35;;;;;;;9.37;5.40;;;11.10;99.90;;;;;;5052947;28;20449;-61
2021/09/28 01:26:02;;;;;;;14.87;7.33;;;11.00;99.90;;;;;;5052861;28;20480;-62
2021/09/28 01:28:29;;;;;;;12.57;7.50;;;11.00;99.90;;;;;;5052838;28;20483;-62
2021/09/28 01:30:58;;;;;;;18.37;8.43;;;10.90;99.90;;;;;;5052947;28;20444;-61
2021/09/28 01:33:25;;;;;;;15.33;6.67;;;10.90;99.90;;;;;;5052767;28;20555;-62
2021/09/28 01:35:52;;;;;;;21.73;7.93;;;10.90;99.90;;;;;;5052768;28;20460;-64
2021/09/28 01:38:20;;;;;;;13.80;6.93;;;10.90;99.90;;;;;;5052763;28;20436;-63
2021/09/28 01:40:47;;;;;;;17.00;8.77;;;10.80;99.90;;;;;;5052672;28;20451;-60
2021/09/28 01:43:14;;;;;;;22.10;7.30;;;10.80;99.90;;;;;;5052498;28;20933;-63
2021/09/28 01:45:42;;;;;;;20.17;9.40;;;10.80;99.90;;;;;;5052613;28;20507;-63
2021/09/28 01:48:09;;;;;;;16.27;8.53;;;10.80;99.90;;;;;;5052494;28;20479;-63
2021/09/28 01:50:37;;;;;;;15.03;6.10;;;10.80;99.90;;;;;;5052586;28;20444;-62
2021/09/28 01:53:03;;;;;;;21.77;10.50;;;10.90;99.90;;;;;;5052390;28;20451;-62
2021/09/28 01:55:32;;;;;;;22.87;8.67;;;10.90;99.90;;;;;;5052508;28;20868;-62
2021/09/28 01:57:59;;;;;;;17.93;9.20;;;10.90;99.90;;;;;;5052218;28;20440;-61
2021/09/28 02:00:27;;;;;;;17.10;7.87;;;10.90;99.90;;;;;;5051944;28;20448;-64
2021/09/28 02:02:53;;;;;;;15.93;8.70;;;10.90;99.90;;;;;;5052102;28;20822;-63
2021/09/28 02:05:21;;;;;;;14.13;7.53;;;11.00;99.90;;;;;;5051902;28;22471;-60
2021/09/28 02:07:47;;;;;;;21.90;8.73;;;11.00;99.90;;;;;;5052148;28;20511;-61
2021/09/28 02:10:14;;;;;;;19.47;7.63;;;11.00;99.90;;;;;;5052183;28;20443;-64
2021/09/28 02:12:42;;;;;;;20.73;8.17;;;11.00;99.90;;;;;;5052152;28;20440;-64
2021/09/28 02:15:10;;;;;;;16.53;9.03;;;11.00;99.90;;;;;;5052029;28;20440;-59
2021/09/28 02:17:36;;;;;;;7.50;5.43;;;11.10;99.90;;;;;;5051882;28;20441;-61
2021/09/28 02:20:04;;;;;;;8.70;6.10;;;11.10;99.90;;;;;;5051676;28;20856;-60
2021/09/28 02:22:31;;;;;;;24.70;6.93;;;11.00;99.90;;;;;;5052313;28;20447;-64
2021/09/28 02:24:58;;;;;;;14.90;6.97;;;11.10;99.90;;;;;;5052177;28;20444;-59
2021/09/28 02:27:24;;;;;;;15.23;7.50;;;11.00;99.90;;;;;;5133354;22;20879;-64
2021/09/28 02:29:53;;;;;;;13.97;6.63;;;11.00;99.90;;;;;;5104326;28;20445;-63
2021/09/28 02:32:19;;;;;;;13.73;6.70;;;11.00;99.90;;;;;;5112473;28;20433;-63
2021/09/28 02:34:46;;;;;;;25.23;8.07;;;11.00;99.90;;;;;;5112454;28;20937;-61
2021/09/28 02:37:13;;;;;;;11.13;6.30;;;11.00;99.90;;;;;;5078070;28;20832;-64
2021/09/28 02:39:40;;;;;;;11.77;5.33;;;11.00;99.90;;;;;;5071544;28;20442;-63
2021/09/28 02:42:07;;;;;;;10.87;5.07;;;11.00;99.90;;;;;;5071881;28;20471;-64
2021/09/28 02:44:34;;;;;;;11.70;5.23;;;11.00;99.90;;;;;;5071650;28;20446;-63
2021/09/28 02:47:03;;;;;;;9.50;4.27;;;10.90;99.90;;;;;;5071783;28;20514;-64
2021/09/28 02:49:30;;;;;;;20.83;6.83;;;11.00;99.90;;;;;;5071309;28;20474;-62
2021/09/28 02:51:56;;;;;;;12.87;6.53;;;11.00;99.90;;;;;;5071583;28;20450;-62
2021/09/28 02:54:23;;;;;;;8.27;4.87;;;11.00;99.90;;;;;;5071502;28;20446;-63
2021/09/28 02:56:50;;;;;;;21.07;5.43;;;11.00;99.90;;;;;;5084805;28;20467;-63
2021/09/28 02:59:17;;;;;;;11.27;5.13;;;11.00;99.90;;;;;;5091875;28;20434;-63
2021/09/28 03:01:44;;;;;;;17.53;8.20;;;11.00;99.90;;;;;;5091691;28;20453;-63
2021/09/28 03:04:12;;;;;;;15.93;5.67;;;11.00;99.90;;;;;;5075487;28;20448;-63
2021/09/28 03:06:38;;;;;;;19.23;9.20;;;11.00;99.90;;;;;;5071710;28;20467;-63
2021/09/28 03:09:05;;;;;;;12.80;5.83;;;11.00;99.90;;;;;;5071181;28;20485;-63
2021/09/28 03:11:32;;;;;;;9.13;6.03;;;11.00;99.90;;;;;;5071644;28;20446;-63
2021/09/28 03:13:59;;;;;;;14.37;5.50;;;10.90;99.90;;;;;;5085180;28;20458;-63
2021/09/28 03:16:26;;;;;;;15.33;7.80;;;10.90;99.90;;;;;;5094715;28;20469;-61
2021/09/28 03:18:53;;;;;;;20.47;8.30;;;10.90;99.90;;;;;;5095464;28;20849;-63
2021/09/28 03:21:21;;;;;;;8.50;5.17;;;10.80;99.90;;;;;;5095646;28;20492;-64
2021/09/28 03:23:48;;;;;;;23.77;11.40;;;10.80;99.90;;;;;;5083016;28;20454;-64
2021/09/28 03:26:15;;;;;;;18.70;10.17;;;10.80;99.90;;;;;;5075199;28;20475;-63
2021/09/28 03:28:42;;;;;;;19.03;10.57;;;10.80;99.90;;;;;;5075059;28;20479;-63
2021/09/28 03:31:09;;;;;;;20.87;11.53;;;10.80;99.90;;;;;;5075320;28;20804;-63
2021/09/28 03:33:35;;;;;;;14.60;8.70;;;10.80;99.90;;;;;;5085176;28;20446;-62
2021/09/28 03:36:02;;;;;;;27.43;12.87;;;10.80;99.90;;;;;;5095430;28;20466;-63
2021/09/28 03:38:30;;;;;;;21.03;9.67;;;10.80;99.90;;;;;;5095207;28;20808;-63
2021/09/28 03:40:57;;;;;;;15.63;9.80;;;10.80;99.90;;;;;;5095280;28;20830;-62
2021/09/28 03:43:26;;;;;;;16.70;8.17;;;10.80;99.90;;;;;;5086621;28;20454;-64
2021/09/28 03:45:53;;;;;;;22.67;10.90;;;10.80;99.90;;;;;;5075035;28;20560;-64
2021/09/28 03:48:20;;;;;;;15.27;9.00;;;10.80;99.90;;;;;;5074826;28;20483;-63
2021/09/28 03:50:47;;;;;;;34.63;12.83;;;10.80;99.90;;;;;;5074872;28;20443;-63
2021/09/28 03:53:14;;;;;;;18.00;8.30;;;10.70;99.90;;;;;;5081543;28;20453;-63
2021/09/28 03:55:42;;;;;;;26.00;14.20;;;10.70;99.90;;;;;;5095004;28;20442;-62
2021/09/28 03:58:11;;;;;;;29.27;13.50;;;10.70;99.90;;;;;;5094840;28;20819;-63
2021/09/28 04:00:38;;;;;;;26.00;11.27;;;10.70;99.90;;;;;;5094884;28;20442;-62
2021/09/28 04:03:05;;;;;;;19.20;9.80;;;10.70;99.90;;;;;;5089100;28;20443;-63
2021/09/28 04:05:32;;;;;;;24.00;12.67;;;10.70;99.90;;;;;;5074670;28;20450;-63
2021/09/28 04:07:59;;;;;;;19.80;12.00;;;10.70;99.90;;;;;;5074233;28;20443;-63
2021/09/28 04:10:26;;;;;;;25.13;9.63;;;10.70;99.90;;;;;;5074492;28;20442;-63
2021/09/28 04:12:54;;;;;;;23.07;9.20;;;10.70;99.90;;;;;;5086093;28;20969;-62
2021/09/28 04:15:24;;;;;;;19.50;10.70;;;10.70;99.90;;;;;;5094788;28;20904;-63
2021/09/28 04:17:51;;;;;;;24.73;10.23;;;10.60;99.90;;;;;;5094394;28;20446;-62
2021/09/28 04:20:18;;;;;;;18.37;10.00;;;10.60;99.90;;;;;;5094657;28;20441;-63
2021/09/28 04:22:45;;;;;;;27.23;9.97;;;10.60;99.90;;;;;;5091834;28;20835;-64
2021/09/28 04:25:13;;;;;;;20.17;9.10;;;10.60;99.90;;;;;;5074315;28;20910;-63
2021/09/28 04:27:39;;;;;;;30.70;9.20;;;10.60;99.90;;;;;;5073804;28;20475;-63
2021/09/28 04:30:09;;;;;;;18.73;9.13;;;10.60;99.90;;;;;;5073879;28;20479;-63
2021/09/28 04:32:35;;;;;;;17.53;6.60;;;10.70;99.90;;;;;;5075047;28;20447;-64
2021/09/28 04:35:02;;;;;;;14.03;7.17;;;10.70;99.90;;;;;;5094515;28;20434;-64
2021/09/28 04:37:29;;;;;;;16.90;9.77;;;10.70;99.90;;;;;;5094180;28;21008;-64
2021/09/28 04:39:55;;;;;;;18.23;6.30;;;10.70;99.90;;;;;;5093960;28;20438;-64
2021/09/28 04:42:22;;;;;;;14.50;11.83;;;10.60;99.90;;;;;;5094223;28;20450;-63
2021/09/28 04:44:49;;;;;;;17.70;7.47;;;10.60;99.90;;;;;;5074322;28;20447;-63
2021/09/28 04:47:17;;;;;;;19.40;9.53;;;10.60;99.90;;;;;;5073840;28;21202;-64
2021/09/28 04:49:44;;;;;;;13.60;7.27;;;10.60;99.90;;;;;;5091416;28;20481;-65
2021/09/28 04:52:11;;;;;;;26.90;9.73;;;10.50;99.90;;;;;;5093345;28;20438;-64
2021/09/28 04:54:38;;;;;;;15.87;8.73;;;10.50;99.90;;;;;;5093641;28;20928;-64
2021/09/28 04:57:05;;;;;;;21.17;9.23;;;10.50;99.90;;;;;;5093827;28;20466;-65
2021/09/28 04:59:32;;;;;;;19.60;9.67;;;10.40;99.90;;;;;;5093771;28;20438;-65
2021/09/28 05:01:59;;;;;;;13.97;6.63;;;10.50;99.90;;;;;;5093617;28;20536;-65
2021/09/28 05:04:27;;;;;;;20.73;9.67;;;10.40;99.90;;;;;;5093745;28;20449;-65
2021/09/28 05:06:53;;;;;;;18.77;7.57;;;10.30;99.90;;;;;;5093561;28;20473;-65
2021/09/28 05:09:21;;;;;;;13.43;7.30;;;10.30;99.90;;;;;;5093179;28;20556;-64
2021/09/28 05:11:48;;;;;;;19.27;8.27;;;10.30;99.90;;;;;;5093597;28;20529;-65
2021/09/28 05:14:15;;;;;;;25.07;7.63;;;10.30;99.90;;;;;;5093536;28;20447;-64
2021/09/28 05:16:41;;;;;;;18.40;7.67;;;10.20;99.90;;;;;;5093317;28;20458;-65
2021/09/28 05:19:08;;;;;;;9.43;5.43;;;10.20;99.90;;;;;;5093262;28;20438;-64
2021/09/28 05:21:36;;;;;;;20.80;6.53;;;10.20;99.90;;;;;;5093306;28;20492;-65
2021/09/28 05:24:03;;;;;;;18.33;9.07;;;10.20;99.90;;;;;;5093464;28;20768;-65
2021/09/28 05:26:30;;;;;;;19.33;8.23;;;10.20;99.90;;;;;;5093058;28;20481;-65
2021/09/28 05:28:56;;;;;;;14.30;10.27;;;10.20;99.90;;;;;;5092870;28;20482;-65
2021/09/28 05:31:23;;;;;;;14.90;8.33;;;10.20;99.90;;;;;;5093227;28;20508;-64
2021/09/28 05:33:50;;;;;;;21.27;8.63;;;10.20;99.90;;;;;;5093046;28;20446;-65
2021/09/28 05:36:16;;;;;;;19.17;9.33;;;10.20;99.90;;;;;;5092960;28;20796;-65
2021/09/28 05:38:44;;;;;;;17.80;6.63;;;10.20;99.90;;;;;;5092079;28;20434;-65
2021/09/28 05:41:11;;;;;;;16.97;5.10;;;10.20;99.90;;;;;;5092986;28;20446;-65
2021/09/28 05:43:39;;;;;;;19.00;8.70;;;10.20;99.90;;;;;;5092897;28;20442;-65
2021/09/28 05:46:05;;;;;;;19.63;8.10;;;10.20;99.90;;;;;;5092764;28;20466;-65
2021/09/28 05:48:32;;;;;;;8.00;4.63;;;10.20;99.90;;;;;;5092532;28;20454;-64
2021/09/28 05:50:59;;;;;;;14.17;6.60;;;10.20;99.90;;;;;;5092640;28;20450;-65
2021/09/28 05:53:27;;;;;;;13.07;6.13;;;10.30;99.90;;;;;;5092752;28;20446;-65
2021/09/28 05:55:55;;;;;;;14.97;6.00;;;10.30;99.90;;;;;;5092656;28;20470;-65
2021/09/28 05:58:22;;;;;;;14.80;5.30;;;10.30;99.90;;;;;;5092315;28;20438;-65
2021/09/28 06:00:49;;;;;;;15.90;6.10;;;10.40;99.90;;;;;;5092525;28;20434;-65
2021/09/28 06:03:15;;;;;;;10.57;4.73;;;10.40;99.90;;;;;;5092483;28;20460;-65
2021/09/28 06:05:42;;;;;;;13.23;4.77;;;10.50;99.90;;;;;;5092394;28;20811;-65
2021/09/28 06:08:09;;;;;;;15.17;6.10;;;10.50;99.90;;;;;;5092479;28;20442;-65
2021/09/28 06:10:35;;;;;;;12.97;6.90;;;10.60;99.90;;;;;;5092406;28;20492;-65
2021/09/28 06:13:03;;;;;;;14.83;6.03;;;10.60;99.90;;;;;;5092285;28;20919;-65
2021/09/28 06:15:30;;;;;;;21.17;5.17;;;10.70;99.90;;;;;;5092417;28;20853;-65
2021/09/28 06:17:57;;;;;;;13.27;5.30;;;10.70;99.90;;;;;;5092085;28;20446;-65
2021/09/28 06:20:24;;;;;;;8.37;4.50;;;10.70;99.90;;;;;;5092121;28;20491;-65
2021/09/28 06:22:50;;;;;;;9.47;4.77;;;10.80;99.90;;;;;;5092240;28;20924;-65
2021/09/28 06:25:17;;;;;;;14.77;5.10;;;10.90;99.90;;;;;;5092230;28;20442;-65
2021/09/28 06:27:44;;;;;;;11.10;5.20;;;10.90;99.90;;;;;;5091840;28;20478;-65
2021/09/28 06:30:13;;;;;;;14.20;4.23;;;11.00;99.90;;;;;;5091893;28;20474;-65
2021/09/28 06:32:40;;;;;;;13.93;4.47;;;11.10;99.90;;;;;;5091993;28;20450;-65
2021/09/28 06:35:07;;;;;;;10.60;4.40;;;11.20;99.90;;;;;;5091979;28;20442;-65
2021/09/28 06:37:34;;;;;;;14.17;5.07;;;11.20;99.90;;;;;;5091924;28;20466;-65
2021/09/28 06:40:01;;;;;;;11.67;4.50;;;11.30;99.90;;;;;;5091723;28;20438;-65
2021/09/28 06:42:27;;;;;;;7.20;4.97;;;11.30;99.90;;;;;;5092021;28;20442;-65
2021/09/28 06:44:54;;;;;;;13.17;6.07;;;11.40;99.90;;;;;;5092005;28;20457;-65
2021/09/28 06:47:22;;;;;;;19.17;6.10;;;11.50;99.90;;;;;;5091751;28;20474;-65
2021/09/28 06:49:49;;;;;;;10.87;4.00;;;11.60;99.90;;;;;;5091544;28;20474;-65
2021/09/28 06:52:15;;;;;;;7.60;4.57;;;11.60;99.90;;;;;;5091864;28;20438;-65
2021/09/28 06:54:42;;;;;;;16.10;5.07;;;11.70;99.90;;;;;;5091691;28;20813;-65
2021/09/28 06:57:09;;;;;;;21.30;6.10;;;11.70;99.90;;;;;;5091589;28;20469;-65
2021/09/28 06:59:35;;;;;;;9.10;5.33;;;11.80;99.90;;;;;;5091646;28;20865;-65
2021/09/28 07:02:02;;;;;;;9.17;4.47;;;11.90;99.90;;;;;;5091844;28;20439;-65
2021/09/28 07:04:30;;;;;;;9.57;6.00;;;12.00;99.90;;;;;;5091749;28;20446;-65
2021/09/28 07:06:57;;;;;;;8.57;4.00;;;12.00;99.90;;;;;;5091417;28;20490;-65
2021/09/28 07:09:23;;;;;;;12.60;4.20;;;12.10;99.90;;;;;;5091448;28;20481;-65
2021/09/28 07:11:50;;;;;;;8.67;4.23;;;12.20;99.90;;;;;;5091660;28;20449;-65
2021/09/28 07:14:17;;;;;;;10.63;4.67;;;12.30;99.90;;;;;;5091496;28;20450;-65
2021/09/28 07:16:43;;;;;;;7.37;4.70;;;12.40;99.90;;;;;;5091523;28;20466;-65
2021/09/28 07:19:10;;;;;;;11.17;4.47;;;12.40;99.90;;;;;;5091273;28;20444;-65
2021/09/28 07:21:38;;;;;;;13.73;8.37;;;12.50;99.90;;;;;;5091459;28;20473;-65
2021/09/28 07:24:06;;;;;;;12.73;4.60;;;12.60;99.90;;;;;;5091632;28;20458;-65
2021/09/28 07:26:32;;;;;;;10.40;4.70;;;12.70;99.90;;;;;;5091521;28;20493;-65
2021/09/28 07:28:59;;;;;;;11.93;5.23;;;12.70;99.90;;;;;;5090989;28;20438;-65
2021/09/28 07:31:26;;;;;;;6.53;4.13;;;12.80;99.90;;;;;;5091938;28;20827;-65
2021/09/28 07:33:52;;;;;;;13.20;4.00;;;12.90;99.90;;;;;;5092210;28;20446;-65
2021/09/28 07:36:19;;;;;;;10.30;4.40;;;13.00;99.90;;;;;;5091683;28;20465;-65
2021/09/28 07:38:47;;;;;;;11.93;4.60;;;13.00;99.90;;;;;;5091061;28;20442;-63
2021/09/28 07:41:14;;;;;;;8.60;3.43;;;13.10;99.90;;;;;;5091137;28;20621;-64
2021/09/28 07:43:41;;;;;;;9.40;3.93;;;13.10;99.90;;;;;;5091138;28;20446;-64
2021/09/28 07:46:07;;;;;;;9.47;4.30;;;13.20;99.90;;;;;;5091284;28;20466;-64
2021/09/28 07:48:34;;;;;;;8.53;4.57;;;13.30;99.90;;;;;;5090997;28;20442;-64
2021/09/28 07:51:01;;;;;;;6.00;3.83;;;13.40;99.90;;;;;;5090971;28;20585;-63
2021/09/28 07:53:28;;;;;;;10.77;3.83;;;13.50;99.90;;;;;;5091186;28;20946;-64
2021/09/28 07:55:56;;;;;;;8.47;3.20;;;13.60;99.90;;;;;;5090976;28;20462;-63
2021/09/28 07:58:23;;;;;;;8.33;4.07;;;13.60;99.90;;;;;;5090894;28;20930;-64
2021/09/28 08:00:50;;;;;;;16.13;3.60;;;13.70;99.90;;;;;;5091687;28;20445;-64
2021/09/28 08:03:16;;;;;;;4.90;2.57;;;13.70;99.90;;;;;;5095014;28;20909;-64
2021/09/28 08:05:44;;;;;;;9.47;3.93;;;13.80;99.90;;;;;;5094949;28;20470;-64
2021/09/28 08:08:10;;;;;;;7.20;3.43;;;13.90;99.90;;;;;;5094760;28;20469;-64
2021/09/28 08:10:37;;;;;;;10.33;3.67;;;13.90;99.90;;;;;;5094606;28;20528;-64
2021/09/28 08:13:05;;;;;;;15.17;5.13;;;14.00;99.90;;;;;;5094817;28;20445;-63
2021/09/28 08:15:33;;;;;;;10.37;3.67;;;14.20;99.90;;;;;;5094647;28;20442;-65
2021/09/28 08:18:00;;;;;;;7.13;3.97;;;14.20;99.90;;;;;;5094586;28;20442;-63
2021/09/28 08:20:27;;;;;;;12.70;6.53;;;14.30;99.90;;;;;;5094586;28;20438;-62
2021/09/28 08:22:55;;;;;;;7.77;5.00;;;14.40;99.90;;;;;;5094494;28;20451;-64
2021/09/28 08:25:32;;;;;;;15.13;4.50;;;14.50;99.90;;;;;;5094374;28;20446;-64
2021/09/28 08:30:45;;;;;;;13.70;5.90;;;14.60;99.90;;;;;;5094072;28;20480;-61
2021/09/28 08:33:12;;;;;;;8.83;3.70;;;14.80;99.90;;;;;;5094157;28;20450;-62
2021/09/28 08:35:38;;;;;;;8.10;3.50;;;14.80;99.90;;;;;;5094206;28;20443;-63
2021/09/28 08:38:05;;;;;;;5.60;3.63;;;14.90;99.90;;;;;;5093673;28;20469;-61
2021/09/28 08:40:32;;;;;;;7.57;3.77;;;15.00;99.90;;;;;;5093924;28;20438;-61
2021/09/28 08:42:58;;;;;;;8.77;3.83;;;15.10;99.90;;;;;;5093952;28;20950;-61
2021/09/28 08:45:25;;;;;;;3.20;2.77;;;15.20;99.90;;;;;;5094001;28;20447;-63
2021/09/28 08:47:53;;;;;;;6.20;3.43;;;15.30;99.90;;;;;;5093961;28;20506;-61
2021/09/28 08:50:22;;;;;;;6.13;3.13;;;15.50;99.90;;;;;;5093972;28;20485;-61
2021/09/28 08:52:51;;;;;;;8.70;3.83;;;15.60;99.90;;;;;;5093905;28;20445;-59
2021/09/28 08:55:18;;;;;;;6.73;3.70;;;15.80;99.90;;;;;;5093712;28;20819;-62
2021/09/28 08:57:45;;;;;;;8.13;4.87;;;15.90;99.90;;;;;;5093678;28;20470;-65
2021/09/28 09:00:23;;;;;;;4.70;3.60;;;16.00;99.90;;;;;;5093648;28;20442;-63
2021/09/28 09:02:50;;;;;;;9.63;3.37;;;16.20;99.90;;;;;;5093937;28;20450;-61
2021/09/28 09:05:19;;;;;;;8.93;3.97;;;16.30;99.90;;;;;;5093586;28;20478;-61
2021/09/28 09:07:58;;;;;;;5.83;3.50;;;16.40;99.90;;;;;;5093359;28;20463;-61
2021/09/28 09:10:28;;;;;;;10.83;4.40;;;16.50;99.90;;;;;;5093575;28;20530;-63
2021/09/28 09:12:55;;;;;;;14.27;4.73;;;16.70;99.90;;;;;;5092601;28;20441;-61
2021/09/28 09:15:25;;;;;;;9.13;3.63;;;16.90;99.90;;;;;;5093408;28;20454;-60
2021/09/28 09:17:55;;;;;;;9.17;4.33;;;17.20;99.90;;;;;;5093364;28;20591;-59
2021/09/28 09:20:36;;;;;;;6.47;4.57;;;17.40;99.90;;;;;;5093272;28;20814;-61
2021/09/28 09:23:18;;;;;;;4.83;4.23;;;17.70;99.90;;;;;;5093425;28;20445;-60
2021/09/28 09:25:45;;;;;;;5.50;5.00;;;17.90;99.90;;;;;;5093607;28;20434;-62
2021/09/28 09:28:20;;;;;;;8.67;4.97;;;18.20;99.90;;;;;;5093029;28;20825;-61
2021/09/28 09:30:47;;;;;;;7.30;6.23;;;18.50;99.90;;;;;;5093004;28;20830;-63
2021/09/28 09:33:22;;;;;;;8.67;7.60;;;18.70;99.90;;;;;;5093137;28;20821;-61
2021/09/28 09:35:58;;;;;;;9.37;8.60;;;18.80;99.90;;;;;;5093163;28;20441;-62
2021/09/28 09:38:24;;;;;;;11.20;10.53;;;19.00;99.90;;;;;;5092843;28;20480;-60
2021/09/28 09:40:52;;;;;;;11.07;10.27;;;19.10;99.90;;;;;;5093074;28;20450;-59
2021/09/28 09:43:28;;;;;;;12.03;11.13;;;19.10;99.90;;;;;;5093048;28;20803;-61
2021/09/28 09:46:07;;;;;;;12.20;11.27;;;19.30;99.90;;;;;;5092956;28;20450;-61
2021/09/28 09:48:34;;;;;;;13.30;12.50;;;19.50;99.90;;;;;;5092751;28;20442;-62
2021/09/28 09:51:07;;;;;;;13.53;12.67;;;19.60;99.90;;;;;;5092881;28;20482;-61
2021/09/28 09:53:34;;;;;;;14.47;13.37;;;19.70;99.90;;;;;;5092946;28;20935;-65
2021/09/28 09:56:02;;;;;;;15.23;13.97;;;19.80;99.90;;;;;;5092793;28;20442;-65
2021/09/28 09:58:29;;;;;;;15.90;14.93;;;19.80;99.90;;;;;;5092512;28;20853;-64
2021/09/28 10:00:57;;;;;;;15.77;14.87;;;19.90;99.90;;;;;;5092679;28;20461;-64
2021/09/28 10:03:24;;;;;;;18.37;16.63;;;20.10;99.90;;;;;;5092545;28;20450;-63
2021/09/28 10:05:51;;;;;;;15.90;15.00;;;20.20;99.90;;;;;;5092608;28;20450;-65
2021/09/28 10:08:20;;;;;;;17.57;16.37;;;20.30;99.90;;;;;;5092255;28;20465;-64
2021/09/28 10:10:56;;;;;;;16.87;15.87;;;20.40;99.90;;;;;;5092420;28;20836;-64
2021/09/28 10:13:45;;;;;;;17.43;16.47;;;20.50;99.90;;;;;;5092505;28;20442;-63
2021/09/28 10:16:36;;;;;;;17.43;16.43;;;20.50;99.90;;;;;;5092549;28;20442;-64
2021/09/28 10:19:04;;;;;;;17.30;16.20;;;20.40;99.90;;;;;;5092299;28;20919;-64
2021/09/28 10:21:36;;;;;;;19.90;18.57;;;20.60;99.90;;;;;;5092238;28;20439;-63
2021/09/28 10:24:27;;;;;;;18.03;16.77;;;20.80;99.90;;;;;;5091876;28;20450;-65
2021/09/28 10:27:29;;;;;;;18.83;17.57;;;20.80;99.90;;;;;;5092174;28;20474;-64
2021/09/28 10:29:56;;;;;;;18.60;17.23;;;20.70;99.90;;;;;;5091775;28;20441;-63
2021/09/28 10:32:48;;;;;;;19.27;18.00;;;20.80;99.90;;;;;;5091950;28;20455;-63
2021/09/28 10:35:17;;;;;;;20.57;18.87;;;20.80;99.90;;;;;;5092099;28;20905;-64
2021/09/28 10:37:52;;;;;;;19.33;18.00;;;21.10;99.90;;;;;;5091712;28;20596;-63
2021/09/28 10:40:51;;;;;;;20.83;19.23;;;21.20;99.90;;;;;;5091828;28;20795;-65
2021/09/28 10:43:31;;;;;;;20.40;19.27;;;21.30;99.90;;;;;;5092055;28;20815;-64
2021/09/28 10:46:04;;;;;;;21.13;19.63;;;21.20;99.90;;;;;;5091954;28;20812;-65
2021/09/28 10:48:36;;;;;;;21.80;20.40;;;21.40;99.90;;;;;;5091852;28;20537;-65
2021/09/28 10:51:14;;;;;;;20.13;19.17;;;21.50;99.90;;;;;;5091808;28;20473;-65
2021/09/28 10:53:43;;;;;;;21.50;20.13;;;21.80;99.90;;;;;;5091676;28;20458;-65
2021/09/28 10:56:13;;;;;;;22.40;20.83;;;22.10;99.90;;;;;;5091732;28;20438;-64
2021/09/28 10:58:52;;;;;;;22.53;21.00;;;22.00;99.90;;;;;;5091546;28;20450;-64
2021/09/28 11:01:19;;;;;;;21.47;20.23;;;22.20;99.90;;;;;;5091663;28;20491;-64
2021/09/28 11:03:58;;;;;;;22.43;21.30;;;22.40;99.90;;;;;;5091657;28;20446;-63
2021/09/28 11:06:53;;;;;;;22.03;20.83;;;22.40;99.90;;;;;;5091580;28;20462;-65
2021/09/28 11:09:23;;;;;;;22.83;21.20;;;22.50;99.90;;;;;;5091571;28;20447;-64
2021/09/28 11:11:54;;;;;;;22.63;21.13;;;22.90;99.90;;;;;;5091607;28;20482;-63
2021/09/28 11:14:22;;;;;;;22.33;20.93;;;23.10;99.90;;;;;;5091643;28;20445;-63
2021/09/28 11:16:53;;;;;;;22.50;20.93;;;23.00;99.90;;;;;;5091403;28;20472;-63
2021/09/28 11:19:20;;;;;;;22.40;21.10;;;23.00;99.60;;;;;;5091409;28;20442;-65
2021/09/28 11:21:48;;;;;;;22.03;20.80;;;23.30;99.20;;;;;;5091448;28;20434;-64
2021/09/28 11:24:20;;;;;;;21.73;20.53;;;23.10;99.00;;;;;;5091588;28;20439;-65
2021/09/28 11:26:46;;;;;;;21.67;20.50;;;23.80;98.80;;;;;;5091280;28;20470;-61
2021/09/28 11:29:20;;;;;;;22.37;21.27;;;24.50;96.80;;;;;;5091180;28;20453;-61
2021/09/28 11:31:48;;;;;;;24.17;22.43;;;25.00;94.90;;;;;;5091381;28;20843;-63
2021/09/28 11:34:25;;;;;;;23.00;21.70;;;25.30;92.60;;;;;;5091335;28;20442;-61
2021/09/28 11:36:53;;;;;;;23.50;22.20;;;25.50;90.30;;;;;;5093708;28;20468;-64
2021/09/28 11:39:20;;;;;;;24.03;22.40;;;25.10;87.60;;;;;;5095210;28;20515;-63
2021/09/28 11:41:47;;;;;;;22.50;21.17;;;25.10;88.60;;;;;;5095362;28;20807;-63
2021/09/28 11:44:15;;;;;;;23.20;22.00;;;25.20;85.20;;;;;;5095248;28;20446;-62
2021/09/28 11:46:42;;;;;;;23.80;22.40;;;25.40;83.00;;;;;;5095143;28;20457;-62
2021/09/28 11:49:11;;;;;;;23.20;22.13;;;25.20;84.50;;;;;;5095151;28;20450;-63
2021/09/28 11:51:40;;;;;;;23.83;21.83;;;24.90;86.20;;;;;;5095009;28;20853;-61
2021/09/28 11:54:08;;;;;;;23.77;22.13;;;25.10;87.00;;;;;;5095113;28;20442;-62
2021/09/28 11:56:37;;;;;;;22.90;21.70;;;25.60;82.40;;;;;;5094959;28;20987;-62
2021/09/28 11:59:03;;;;;;;24.13;22.73;;;25.80;82.80;;;;;;5094662;28;20450;-61
2021/09/28 12:01:32;;;;;;;25.83;24.17;;;25.80;79.90;;;;;;5094897;28;20438;-62
2021/09/28 12:04:07;;;;;;;24.40;22.80;;;25.90;78.60;;;;;;5094829;28;20507;-60
2021/09/28 12:06:46;;;;;;;24.33;23.03;;;25.90;77.60;;;;;;5094838;28;20468;-63
2021/09/28 12:09:13;;;;;;;24.20;22.63;;;25.70;77.10;;;;;;5094742;28;20511;-61
2021/09/28 12:11:59;;;;;;;23.80;22.20;;;25.60;76.40;;;;;;5094893;28;20837;-63
2021/09/28 12:14:34;;;;;;;22.70;21.40;;;25.60;74.80;;;;;;5094836;28;20450;-60
2021/09/28 12:17:13;;;;;;;23.17;21.70;;;25.50;74.90;;;;;;5094640;28;20462;-61
2021/09/28 12:19:44;;;;;;;22.83;21.63;;;25.30;76.10;;;;;;5094725;28;20795;-63
2021/09/28 12:22:11;;;;;;;23.37;21.93;;;25.20;76.90;;;;;;5094866;28;20430;-62
2021/09/28 12:24:43;;;;;;;22.90;21.50;;;24.80;76.90;;;;;;5094472;28;20438;-62
2021/09/28 12:27:10;;;;;;;23.43;21.83;;;24.80;78.10;;;;;;5094341;28;20473;-61
2021/09/28 12:29:42;;;;;;;25.00;23.43;;;24.80;79.20;;;;;;5094301;28;20434;-61
2021/09/28 12:32:09;;;;;;;22.67;21.47;;;24.80;79.60;;;;;;5094410;28;20478;-62
2021/09/28 12:34:56;;;;;;;23.40;22.10;;;24.90;77.90;;;;;;5094344;28;20446;-60
2021/09/28 12:37:24;;;;;;;22.77;21.57;;;25.00;77.90;;;;;;5094181;28;20469;-61
2021/09/28 12:40:03;;;;;;;22.77;21.47;;;25.00;75.30;;;;;;5094033;28;20438;-62
2021/09/28 12:42:31;;;;;;;25.50;23.47;;;24.90;74.00;;;;;;5094305;28;20446;-60
2021/09/28 12:45:00;;;;;;;22.20;20.90;;;24.80;72.70;;;;;;5094052;28;20450;-61